createdAt,value
2018-07-19T00:00:22.491Z,25.95
2018-07-19T00:05:26.215Z,25.95
2018-07-19T00:10:29.988Z,25.92
2018-07-19T00:15:33.676Z,25.88
2018-07-19T00:20:38.863Z,25.82
2018-07-19T00:25:42.786Z,25.73
2018-07-19T00:30:46.494Z,25.69
2018-07-19T00:35:50.656Z,25.66
2018-07-19T00:40:54.958Z,25.60
2018-07-19T00:45:58.681Z,25.60
2018-07-19T00:51:02.315Z,25.55
2018-07-19T00:56:06.204Z,25.52
2018-07-19T01:01:09.930Z,25.48
2018-07-19T01:06:13.910Z,25.45
2018-07-19T01:11:17.717Z,25.42
2018-07-19T01:16:22.232Z,25.39
2018-07-19T01:21:26.407Z,25.40
2018-07-19T01:26:30.140Z,25.35
2018-07-19T01:31:33.898Z,25.35
2018-07-19T01:36:37.661Z,25.34
2018-07-19T01:42:47.492Z,25.29
2018-07-19T01:47:51.213Z,25.28
2018-07-19T01:52:55.044Z,25.25
2018-07-19T01:57:58.859Z,25.23
2018-07-19T02:03:02.740Z,25.20
2018-07-19T02:08:06.464Z,25.16
2018-07-19T02:13:10.237Z,25.13
2018-07-19T02:18:14.594Z,25.11
2018-07-19T02:23:18.358Z,25.08
2018-07-19T02:28:22.158Z,25.05
2018-07-19T02:33:25.891Z,25.00
2018-07-19T02:38:29.643Z,24.98
2018-07-19T02:43:33.286Z,24.96
2018-07-19T02:48:37.140Z,24.94
2018-07-19T02:53:40.824Z,24.91
2018-07-19T02:58:44.647Z,24.90
2018-07-19T03:03:48.502Z,24.79
2018-07-19T03:08:52.444Z,24.67
2018-07-19T03:13:56.256Z,24.61
2018-07-19T03:19:00.107Z,24.53
2018-07-19T03:24:03.917Z,24.48
2018-07-19T03:29:07.827Z,24.45
2018-07-19T03:34:11.689Z,24.42
2018-07-19T03:39:15.461Z,23.45
2018-07-19T03:44:19.211Z,23.04
2018-07-19T03:49:22.907Z,22.63
2018-07-19T03:54:26.629Z,22.90
2018-07-19T03:59:30.373Z,23.05
2018-07-19T04:04:34.100Z,22.64
2018-07-19T04:09:37.791Z,22.64
2018-07-19T04:14:41.655Z,21.39
2018-07-19T04:19:45.377Z,21.26
2018-07-19T04:24:49.158Z,21.09
2018-07-19T04:29:52.955Z,21.03
2018-07-19T04:34:56.673Z,20.98
2018-07-19T04:40:00.476Z,20.92
2018-07-19T04:45:06.242Z,20.99
2018-07-19T04:50:09.954Z,20.98
2018-07-19T04:55:13.773Z,20.70
2018-07-19T05:00:17.963Z,20.95
2018-07-19T05:05:22.876Z,20.60
2018-07-19T05:10:26.590Z,20.81
2018-07-19T05:15:30.252Z,20.47
2018-07-19T05:20:33.937Z,20.81
2018-07-19T05:25:37.586Z,20.44
2018-07-19T05:30:41.542Z,20.61
2018-07-19T05:35:45.326Z,20.80
2018-07-19T05:40:49.034Z,20.78
2018-07-19T05:45:52.658Z,20.77
2018-07-19T05:50:56.475Z,20.75
2018-07-19T05:56:00.868Z,20.69
2018-07-19T06:01:04.611Z,20.75
2018-07-19T06:06:08.377Z,20.95
2018-07-19T06:11:12.204Z,20.90
2018-07-19T06:16:15.941Z,20.80
2018-07-19T06:21:20.544Z,20.99
2018-07-19T06:26:24.178Z,21.10
2018-07-19T06:31:28.001Z,21.27
2018-07-19T06:36:31.646Z,21.34
2018-07-19T06:41:35.425Z,21.37
2018-07-19T06:46:39.160Z,21.26
2018-07-19T06:51:42.895Z,21.40
2018-07-19T06:56:46.706Z,21.48
2018-07-19T07:01:50.459Z,21.62
2018-07-19T07:06:54.190Z,21.69
2018-07-19T07:11:57.845Z,21.72
2018-07-19T07:17:01.524Z,21.63
2018-07-19T07:22:05.281Z,21.65
2018-07-19T07:27:09.044Z,21.76
2018-07-19T07:32:12.789Z,21.84
2018-07-19T07:37:16.730Z,21.79
2018-07-19T07:42:20.479Z,21.95
2018-07-19T07:47:24.235Z,22.00
2018-07-19T07:52:28.009Z,22.03
2018-07-19T07:57:31.805Z,22.07
2018-07-19T08:02:35.697Z,22.13
2018-07-19T08:07:39.391Z,22.23
2018-07-19T08:12:43.183Z,22.28
2018-07-19T08:17:46.956Z,22.31
2018-07-19T08:22:50.662Z,22.33
2018-07-19T08:27:54.387Z,22.33
2018-07-19T08:32:58.198Z,22.43
2018-07-19T08:38:01.910Z,22.37
2018-07-19T08:43:05.654Z,22.44
2018-07-19T08:48:09.354Z,22.53
2018-07-19T08:53:13.038Z,22.57
2018-07-19T08:58:16.771Z,22.65
2018-07-19T09:03:21.289Z,22.70
2018-07-19T09:08:25.050Z,22.96
2018-07-19T09:13:28.698Z,22.87
2018-07-19T09:18:32.380Z,22.97
2018-07-19T09:23:36.082Z,23.07
2018-07-19T09:28:39.751Z,23.15
2018-07-19T09:33:43.440Z,23.29
2018-07-19T09:38:47.191Z,23.11
2018-07-19T09:43:51.068Z,23.14
2018-07-19T09:48:54.732Z,23.36
2018-07-19T09:53:58.418Z,23.53
2018-07-19T09:59:02.160Z,23.38
2018-07-19T10:04:05.846Z,23.50
2018-07-19T10:09:09.566Z,23.52
2018-07-19T10:14:13.310Z,23.56
2018-07-19T10:19:17.063Z,23.57
2018-07-19T10:24:20.831Z,23.60
2018-07-19T10:29:25.181Z,23.56
2018-07-19T10:34:28.903Z,23.73
2018-07-19T10:39:32.577Z,23.84
2018-07-19T10:44:36.314Z,23.78
2018-07-19T10:49:40.049Z,23.77
2018-07-19T10:54:43.826Z,23.90
2018-07-19T10:59:47.599Z,23.83
2018-07-19T11:04:51.382Z,23.94
2018-07-19T11:09:55.085Z,24.03
2018-07-19T11:14:58.697Z,24.12
2018-07-19T11:20:05.376Z,24.17
2018-07-19T11:25:09.075Z,24.23
2018-07-19T11:30:12.869Z,24.26
2018-07-19T11:35:16.599Z,24.29
2018-07-19T11:40:20.258Z,24.37
2018-07-19T11:45:24.186Z,24.39
2018-07-19T11:50:27.883Z,24.39
2018-07-19T11:55:31.623Z,24.49
2018-07-19T12:00:35.271Z,24.52
2018-07-19T12:05:38.946Z,24.52
2018-07-19T12:10:42.674Z,24.60
2018-07-19T12:15:46.318Z,24.62
2018-07-19T12:20:49.988Z,24.64
2018-07-19T12:25:53.754Z,24.63
2018-07-19T12:30:57.422Z,24.59
2018-07-19T12:36:01.134Z,24.74
2018-07-19T12:41:04.823Z,24.76
2018-07-19T12:46:08.514Z,24.78
2018-07-19T12:51:12.219Z,24.75
2018-07-19T12:56:15.991Z,24.83
2018-07-19T13:01:19.686Z,24.79
2018-07-19T13:06:23.406Z,24.88
2018-07-19T13:11:27.110Z,24.89
2018-07-19T13:16:30.914Z,24.91
2018-07-19T13:21:34.618Z,24.95
2018-07-19T13:26:38.429Z,25.00
2018-07-19T13:31:42.075Z,25.01
2018-07-19T13:36:45.875Z,25.05
2018-07-19T13:41:49.471Z,25.05
2018-07-19T13:46:53.069Z,25.05
2018-07-19T13:51:56.842Z,25.06
2018-07-19T13:57:00.603Z,25.05
2018-07-19T14:02:04.311Z,25.04
2018-07-19T14:07:07.985Z,25.03
2018-07-19T14:12:11.819Z,25.03
2018-07-19T14:17:15.509Z,25.04
2018-07-19T14:22:19.196Z,25.05
2018-07-19T14:27:22.818Z,25.07
2018-07-19T14:32:26.450Z,25.10
2018-07-19T14:37:30.175Z,25.12
2018-07-19T14:42:35.139Z,25.15
2018-07-19T14:47:39.301Z,25.19
2018-07-19T14:52:43.394Z,25.26
2018-07-19T14:57:47.240Z,25.36
2018-07-19T15:02:50.951Z,25.43
2018-07-19T15:07:55.357Z,25.48
2018-07-19T15:12:59.328Z,25.54
2018-07-19T15:18:03.030Z,25.55
2018-07-19T15:23:06.867Z,25.60
2018-07-19T15:28:10.577Z,25.65
2018-07-19T15:33:16.336Z,25.71
2018-07-19T15:38:20.895Z,25.81
2018-07-19T15:43:25.405Z,25.83
2018-07-19T15:48:29.322Z,25.94
2018-07-19T15:53:33.691Z,26.01
2018-07-19T15:58:37.567Z,26.00
2018-07-19T16:03:41.435Z,26.15
2018-07-19T16:08:45.147Z,26.28
2018-07-19T16:13:49.142Z,26.38
2018-07-19T16:18:52.953Z,26.51
2018-07-19T16:23:56.653Z,26.48
2018-07-19T16:29:00.385Z,26.53
2018-07-19T16:34:04.183Z,26.60
2018-07-19T16:39:09.571Z,26.70
2018-07-19T16:44:13.741Z,26.60
2018-07-19T16:49:17.569Z,26.68
2018-07-19T16:54:21.244Z,26.58
2018-07-19T16:59:24.975Z,26.66
2018-07-19T17:04:28.777Z,26.65
2018-07-19T17:09:32.570Z,26.74
2018-07-19T17:14:36.287Z,26.83
2018-07-19T17:19:39.918Z,26.90
2018-07-19T17:24:43.643Z,27.02
2018-07-19T17:29:47.546Z,26.98
2018-07-19T17:34:51.287Z,26.89
2018-07-19T17:39:55.053Z,26.80
2018-07-19T17:44:58.863Z,26.83
2018-07-19T17:50:04.242Z,26.84
2018-07-19T17:55:08.286Z,26.96
2018-07-19T18:00:11.956Z,26.89
2018-07-19T18:05:15.776Z,26.90
2018-07-19T18:10:19.478Z,26.89
2018-07-19T18:15:23.358Z,26.98
2018-07-19T18:20:27.049Z,26.90
2018-07-19T18:25:30.737Z,26.77
2018-07-19T18:30:34.382Z,26.78
2018-07-19T18:35:37.989Z,26.82
2018-07-19T18:40:41.738Z,26.88
2018-07-19T18:45:45.503Z,26.80
2018-07-19T18:50:49.232Z,26.83
2018-07-19T18:55:52.983Z,26.73
2018-07-19T19:00:56.728Z,26.86
2018-07-19T19:06:00.495Z,26.80
2018-07-19T19:11:04.165Z,26.62
2018-07-19T19:16:08.147Z,26.57
2018-07-19T19:21:11.883Z,26.55
2018-07-19T19:26:15.566Z,26.52
2018-07-19T19:31:19.300Z,26.51
2018-07-19T19:36:22.983Z,26.57
2018-07-19T19:41:26.820Z,26.47
2018-07-19T19:46:30.554Z,26.44
2018-07-19T19:51:34.322Z,26.41
2018-07-19T19:56:37.946Z,26.36
2018-07-19T20:01:41.729Z,26.32
2018-07-19T20:06:45.417Z,26.34
2018-07-19T20:11:49.076Z,26.32
2018-07-19T20:16:52.735Z,26.28
2018-07-19T20:21:56.414Z,26.30
2018-07-19T20:27:00.123Z,26.36
2018-07-19T20:32:03.766Z,26.27
2018-07-19T20:37:07.446Z,26.31
2018-07-19T20:42:11.079Z,26.22
2018-07-19T20:47:15.117Z,26.14
2018-07-19T20:52:18.824Z,26.22
2018-07-19T20:57:22.528Z,26.37
2018-07-19T21:02:26.316Z,26.29
2018-07-19T21:07:30.014Z,26.26
2018-07-19T21:12:33.711Z,26.26
2018-07-19T21:17:37.402Z,26.30
2018-07-19T21:22:41.171Z,26.26
2018-07-19T21:27:44.894Z,26.34
2018-07-19T21:32:48.582Z,26.37
2018-07-19T21:37:52.295Z,26.40
2018-07-19T21:42:55.923Z,26.41
2018-07-19T21:47:59.582Z,26.27
2018-07-19T21:53:03.309Z,26.35
2018-07-19T21:58:07.066Z,26.29
2018-07-19T22:03:10.806Z,26.31
2018-07-19T22:08:14.511Z,26.33
2018-07-19T22:13:18.154Z,26.31
2018-07-19T22:18:22.689Z,26.28
2018-07-19T22:23:26.442Z,26.29
2018-07-19T22:28:30.115Z,26.26
2018-07-19T22:33:33.850Z,26.28
2018-07-19T22:38:37.700Z,26.26
2018-07-19T22:43:41.414Z,26.26
2018-07-19T22:48:45.090Z,26.24
2018-07-19T22:53:49.602Z,26.22
2018-07-19T22:58:53.302Z,26.24
2018-07-19T23:03:57.025Z,26.23
2018-07-19T23:09:00.670Z,26.23
2018-07-19T23:14:04.306Z,26.24
2018-07-19T23:19:07.958Z,26.21
2018-07-19T23:24:11.677Z,26.20
2018-07-19T23:29:15.594Z,26.20
2018-07-19T23:34:19.379Z,26.18
2018-07-19T23:39:27.601Z,26.19
2018-07-19T23:44:34.905Z,26.14
2018-07-19T23:49:38.551Z,26.16
2018-07-19T23:54:42.290Z,26.18
2018-07-19T23:59:45.982Z,26.14
